Time;durP1;ratioP1;P1;durP2;ratioP2;P2;SDS_P1;SDS_P2;PMS_P1;PMS_P2;Temp;Humidity;BMP_temperature;BMP_pressure;BME280_temperature;BME280_humidity;BME280_pressure;Samples;Min_cycle;Max_cycle;Signal;HPM_P1;HPM_P2
2024/01/31 00:01:34;;;;;;;21.55;13.18;;;24.10;36.50;;;;;;6145719;28;83946;-55
2024/01/31 00:04:34;;;;;;;22.27;13.63;;;24.10;36.50;;;;;;6142011;28;83087;-53
2024/01/31 00:07:35;;;;;;;20.48;11.90;;;24.10;36.50;;;;;;6138465;28;83476;-49
2024/01/31 00:10:35;;;;;;;19.33;12.35;;;24.10;36.50;;;;;;6142894;28;83961;-49
2024/01/31 00:13:36;;;;;;;24.33;14.15;;;24.10;36.60;;;;;;6149410;28;83034;-48
2024/01/31 00:16:36;;;;;;;18.90;12.00;;;24.00;36.50;;;;;;6147799;28;85045;-49
2024/01/31 00:19:37;;;;;;;22.00;13.43;;;24.00;36.60;;;;;;6149701;28;83099;-50
2024/01/31 00:22:38;;;;;;;20.92;12.90;;;24.00;36.50;;;;;;6150727;28;84050;-47
2024/01/31 00:25:39;;;;;;;21.83;12.50;;;24.00;36.50;;;;;;6144768;28;83157;-51
2024/01/31 00:28:39;;;;;;;21.25;12.80;;;24.10;36.40;;;;;;6149772;28;83076;-53
2024/01/31 00:31:40;;;;;;;21.52;12.95;;;24.00;36.40;;;;;;6140620;28;84062;-52
2024/01/31 00:34:40;;;;;;;20.13;12.38;;;24.00;36.40;;;;;;6143837;28;84169;-51
2024/01/31 00:37:41;;;;;;;18.70;12.75;;;24.00;36.50;;;;;;6144527;28;85882;-54
2024/01/31 00:40:41;;;;;;;21.33;12.30;;;24.10;36.50;;;;;;6165916;28;83491;-54
2024/01/31 00:43:42;;;;;;;21.48;12.63;;;24.00;36.50;;;;;;6149023;28;83990;-63
2024/01/31 00:46:44;;;;;;;22.05;12.43;;;24.00;36.50;;;;;;6150380;28;82925;-62
2024/01/31 00:49:45;;;;;;;22.02;12.65;;;24.10;36.50;;;;;;6148211;28;83708;-62
2024/01/31 00:52:46;;;;;;;20.42;11.80;;;24.00;36.40;;;;;;6149953;28;84130;-61
2024/01/31 00:55:46;;;;;;;22.75;12.73;;;24.10;36.50;;;;;;6149539;28;84029;-62
2024/01/31 00:58:46;;;;;;;22.58;12.88;;;24.10;36.40;;;;;;6149824;28;83224;-63
2024/01/31 01:01:47;;;;;;;19.63;12.70;;;24.10;36.40;;;;;;6149650;28;82832;-64
2024/01/31 01:04:47;;;;;;;19.75;11.55;;;24.00;36.40;;;;;;6143711;28;82992;-62
2024/01/31 01:07:48;;;;;;;21.60;12.13;;;24.00;36.40;;;;;;6140568;28;83189;-63
2024/01/31 01:10:49;;;;;;;19.42;12.50;;;24.00;36.30;;;;;;6148869;28;83629;-64
2024/01/31 01:13:49;;;;;;;20.67;11.35;;;24.00;36.40;;;;;;6149497;28;83285;-64
2024/01/31 01:16:50;;;;;;;19.05;11.65;;;24.00;36.30;;;;;;6136064;28;84459;-65
2024/01/31 01:19:50;;;;;;;19.35;11.35;;;24.00;36.20;;;;;;6149030;28;83371;-64
2024/01/31 01:22:51;;;;;;;20.23;10.85;;;23.90;36.10;;;;;;6148973;28;84125;-62
2024/01/31 01:25:51;;;;;;;18.30;11.27;;;23.90;36.30;;;;;;6144338;28;82979;-63
2024/01/31 01:28:52;;;;;;;18.70;10.15;;;23.90;36.50;;;;;;6147437;28;83740;-62
2024/01/31 01:31:52;;;;;;;18.30;11.25;;;23.90;36.40;;;;;;6149305;28;83069;-64
2024/01/31 01:34:52;;;;;;;19.45;11.23;;;23.90;36.40;;;;;;6149682;28;83201;-63
2024/01/31 01:37:53;;;;;;;18.65;10.90;;;23.90;36.50;;;;;;6135470;28;83848;-65
2024/01/31 01:40:53;;;;;;;18.42;11.02;;;23.90;36.50;;;;;;6149159;28;85411;-55
2024/01/31 01:43:54;;;;;;;18.35;10.85;;;23.90;36.30;;;;;;6147109;28;85600;-52
2024/01/31 01:46:54;;;;;;;17.63;11.05;;;23.90;36.20;;;;;;6148084;28;83225;-51
2024/01/31 01:49:55;;;;;;;21.20;11.35;;;23.90;36.10;;;;;;6147411;28;83182;-54
2024/01/31 01:52:56;;;;;;;18.25;11.07;;;23.80;36.10;;;;;;6148954;28;83248;-53
2024/01/31 01:55:56;;;;;;;16.05;9.80;;;23.80;36.10;;;;;;6148108;28;84706;-52
2024/01/31 01:58:56;;;;;;;18.65;10.35;;;23.90;36.30;;;;;;6148411;28;82915;-51
2024/01/31 02:01:57;;;;;;;17.70;10.73;;;23.90;36.20;;;;;;6139558;28;83253;-50
2024/01/31 02:04:57;;;;;;;18.27;10.32;;;23.80;36.10;;;;;;6143858;28;83189;-49
2024/01/31 02:07:58;;;;;;;16.98;9.98;;;23.80;36.20;;;;;;6148990;28;83733;-50
2024/01/31 02:10:59;;;;;;;18.58;10.48;;;23.90;36.20;;;;;;6148784;28;83522;-53
2024/01/31 02:13:59;;;;;;;16.88;10.38;;;23.90;36.10;;;;;;6148642;28;83247;-47
2024/01/31 02:17:00;;;;;;;16.90;10.30;;;23.80;36.20;;;;;;6148920;28;83291;-50
2024/01/31 02:20:00;;;;;;;16.13;9.35;;;23.90;36.20;;;;;;6148393;28;83375;-51
2024/01/31 02:23:01;;;;;;;17.65;10.18;;;23.90;36.20;;;;;;6150026;28;83136;-46
2024/01/31 02:26:01;;;;;;;17.15;9.50;;;23.90;36.30;;;;;;6143323;28;83297;-50
2024/01/31 02:29:02;;;;;;;15.35;9.43;;;23.90;36.30;;;;;;6151257;28;83663;-45
2024/01/31 02:32:02;;;;;;;14.85;9.40;;;23.90;36.20;;;;;;6150639;28;80158;-50
2024/01/31 02:35:03;;;;;;;15.95;9.10;;;23.90;36.30;;;;;;6151923;28;80889;-49
2024/01/31 02:38:03;;;;;;;15.30;9.55;;;23.90;36.20;;;;;;6151405;28;80324;-48
2024/01/31 02:41:03;;;;;;;13.48;9.25;;;23.80;36.20;;;;;;6154825;28;80659;-49
2024/01/31 02:44:04;;;;;;;16.10;9.18;;;23.80;36.20;;;;;;6155282;28;80938;-47
2024/01/31 02:47:04;;;;;;;16.25;9.85;;;23.90;36.20;;;;;;6155663;28;80393;-47
2024/01/31 02:50:05;;;;;;;16.27;9.88;;;23.90;36.20;;;;;;6155298;28;81415;-47
2024/01/31 02:53:05;;;;;;;17.38;9.55;;;23.80;35.90;;;;;;6154193;28;81308;-50
2024/01/31 02:56:06;;;;;;;15.60;9.05;;;23.80;36.00;;;;;;6149148;28;87808;-52
2024/01/31 02:59:06;;;;;;;15.30;9.07;;;23.80;36.20;;;;;;6145213;28;85511;-50
2024/01/31 03:02:07;;;;;;;17.83;10.07;;;23.80;35.90;;;;;;6153946;28;80267;-47
2024/01/31 03:05:07;;;;;;;15.15;9.20;;;23.80;35.70;;;;;;6150911;28;83331;-51
2024/01/31 03:08:08;;;;;;;17.20;9.10;;;23.80;35.90;;;;;;6154245;28;82973;-46
2024/01/31 03:11:09;;;;;;;14.10;8.95;;;23.80;35.80;;;;;;6154507;28;80560;-61
2024/01/31 03:14:09;;;;;;;14.70;8.77;;;23.80;35.90;;;;;;6154782;28;80463;-61
2024/01/31 03:17:10;;;;;;;13.82;8.43;;;23.80;36.20;;;;;;6148515;28;81920;-62
2024/01/31 03:20:11;;;;;;;14.23;8.82;;;23.70;36.10;;;;;;6150477;28;80640;-62
2024/01/31 03:23:11;;;;;;;14.80;9.45;;;23.80;36.20;;;;;;6153057;28;84690;-60
2024/01/31 03:26:12;;;;;;;15.45;9.10;;;23.80;36.10;;;;;;6154578;28;81920;-61
2024/01/31 03:29:12;;;;;;;14.32;9.10;;;23.80;36.10;;;;;;6155006;28;80497;-51
2024/01/31 03:32:13;;;;;;;14.75;8.90;;;23.80;36.00;;;;;;6151710;28;83275;-46
2024/01/31 03:35:13;;;;;;;11.43;7.38;;;23.80;36.10;;;;;;6154140;28;81774;-50
2024/01/31 03:38:14;;;;;;;16.83;9.30;;;23.80;36.20;;;;;;6154808;28;81466;-49
2024/01/31 03:41:14;;;;;;;13.93;8.45;;;23.80;36.70;;;;;;6153750;28;80240;-47
2024/01/31 03:44:15;;;;;;;14.38;7.93;;;23.80;36.20;;;;;;6153401;28;81023;-47
2024/01/31 03:47:15;;;;;;;14.15;8.40;;;23.80;36.10;;;;;;6153518;28;82090;-51
2024/01/31 03:50:16;;;;;;;14.95;8.13;;;23.80;36.10;;;;;;6152957;28;81472;-54
2024/01/31 03:53:16;;;;;;;12.70;8.00;;;23.80;36.10;;;;;;6152230;28;80581;-52
2024/01/31 03:56:17;;;;;;;15.80;8.43;;;23.80;36.00;;;;;;6165564;28;80431;-54
2024/01/31 03:59:17;;;;;;;11.73;7.82;;;23.80;36.20;;;;;;6154314;28;80296;-52
2024/01/31 04:02:18;;;;;;;12.18;7.93;;;23.70;35.90;;;;;;6152118;28;80731;-51
2024/01/31 04:05:18;;;;;;;14.77;8.13;;;23.70;36.00;;;;;;6151850;28;81036;-51
2024/01/31 04:08:19;;;;;;;10.43;6.85;;;23.80;36.00;;;;;;6148413;28;80514;-54
2024/01/31 04:11:19;;;;;;;11.85;7.30;;;23.80;36.60;;;;;;6143906;28;80444;-49
2024/01/31 04:14:20;;;;;;;11.50;6.45;;;23.80;37.40;;;;;;6150230;28;80503;-48
2024/01/31 04:17:20;;;;;;;9.55;6.60;;;23.70;36.60;;;;;;6144494;28;81642;-48
2024/01/31 04:20:21;;;;;;;10.52;6.72;;;23.70;36.40;;;;;;6145553;28;81885;-45
2024/01/31 04:23:21;;;;;;;11.02;7.28;;;23.80;36.80;;;;;;6153660;28;81380;-49
2024/01/31 04:26:22;;;;;;;11.43;7.05;;;23.80;36.60;;;;;;6151684;28;80589;-62
2024/01/31 04:29:22;;;;;;;11.18;6.18;;;23.80;36.70;;;;;;6162716;28;80641;-64
2024/01/31 04:32:23;;;;;;;12.13;7.03;;;23.90;36.60;;;;;;6165845;28;83255;-70
2024/01/31 04:35:24;;;;;;;12.82;6.68;;;23.90;36.30;;;;;;6154242;28;82048;-70
2024/01/31 04:38:24;;;;;;;12.05;6.60;;;24.00;36.00;;;;;;6144736;28;81209;-62
2024/01/31 04:41:25;;;;;;;10.50;6.57;;;24.00;36.10;;;;;;6153137;28;81084;-66
2024/01/31 04:44:25;;;;;;;11.07;6.97;;;24.00;36.30;;;;;;6152321;28;80953;-65
2024/01/31 04:47:26;;;;;;;13.65;7.20;;;24.10;36.80;;;;;;6151671;28;81905;-65
2024/01/31 04:50:26;;;;;;;11.60;6.85;;;24.10;36.50;;;;;;6151596;28;81209;-66
2024/01/31 04:53:27;;;;;;;10.45;6.40;;;24.20;36.50;;;;;;6150538;28;80687;-67
2024/01/31 04:56:27;;;;;;;10.70;6.28;;;24.20;36.60;;;;;;6147656;28;80570;-67
2024/01/31 04:59:28;;;;;;;10.90;6.85;;;24.20;36.50;;;;;;6150090;28;80748;-66
2024/01/31 05:02:28;;;;;;;10.40;6.45;;;24.30;37.10;;;;;;6148462;28;81008;-61
2024/01/31 05:05:29;;;;;;;9.73;6.70;;;24.30;36.60;;;;;;6141005;28;80418;-63
2024/01/31 05:08:29;;;;;;;11.05;7.05;;;24.30;36.80;;;;;;6147846;28;83607;-61
2024/01/31 05:11:30;;;;;;;12.75;6.45;;;24.30;36.90;;;;;;6138103;28;80341;-65
2024/01/31 05:14:30;;;;;;;13.43;6.63;;;24.30;37.10;;;;;;6138969;28;83778;-65
2024/01/31 05:17:31;;;;;;;12.50;6.72;;;24.30;37.10;;;;;;6149368;28;81515;-64
2024/01/31 05:20:31;;;;;;;11.38;6.35;;;24.40;37.00;;;;;;6153195;28;86936;-53
2024/01/31 05:23:31;;;;;;;9.95;6.25;;;24.40;37.30;;;;;;6161476;28;80532;-52
2024/01/31 05:26:32;;;;;;;11.00;6.80;;;24.30;37.30;;;;;;6163558;28;81086;-54
2024/01/31 05:29:32;;;;;;;12.25;6.75;;;24.30;38.40;;;;;;6149297;28;81593;-55
2024/01/31 05:32:33;;;;;;;10.95;6.15;;;24.30;39.40;;;;;;6150859;28;80328;-50
2024/01/31 05:35:36;;;;;;;17.50;6.40;;;24.30;39.40;;;;;;6151097;28;81161;-56
2024/01/31 05:38:36;;;;;;;10.73;6.57;;;24.30;39.40;;;;;;6148719;28;82085;-54
2024/01/31 05:41:37;;;;;;;14.00;6.93;;;24.40;39.30;;;;;;6150726;28;81233;-52
2024/01/31 05:44:37;;;;;;;8.70;5.60;;;24.40;39.40;;;;;;6150561;28;81254;-55
2024/01/31 05:47:37;;;;;;;8.77;6.15;;;24.30;39.30;;;;;;6149784;28;80504;-56
2024/01/31 05:50:38;;;;;;;10.45;6.43;;;24.30;38.90;;;;;;6151549;28;81297;-54
2024/01/31 05:53:39;;;;;;;13.25;6.75;;;24.30;38.90;;;;;;6147219;28;80647;-56
2024/01/31 05:56:39;;;;;;;11.05;6.22;;;24.30;38.80;;;;;;6145654;28;80506;-50
2024/01/31 05:59:42;;;;;;;15.02;6.82;;;24.30;39.70;;;;;;6147274;28;84339;-54
2024/01/31 06:02:43;;;;;;;11.80;6.35;;;24.30;38.80;;;;;;6148684;28;81010;-52
2024/01/31 06:05:43;;;;;;;13.05;7.22;;;24.20;38.20;;;;;;6138803;28;80667;-51
2024/01/31 06:08:44;;;;;;;11.48;6.68;;;24.20;37.90;;;;;;6139108;28;80380;-51
2024/01/31 06:11:44;;;;;;;10.70;6.72;;;24.10;37.70;;;;;;6144517;28;80352;-51
2024/01/31 06:14:45;;;;;;;9.63;6.82;;;24.00;37.60;;;;;;6151889;28;81081;-55
2024/01/31 06:17:45;;;;;;;11.40;6.90;;;24.10;37.50;;;;;;6143294;28;80909;-51
2024/01/31 06:20:46;;;;;;;12.45;6.75;;;24.00;37.30;;;;;;6146190;28;80741;-54
2024/01/31 06:23:47;;;;;;;9.90;6.90;;;24.00;37.50;;;;;;6134592;28;82077;-51
2024/01/31 06:26:48;;;;;;;13.75;8.00;;;24.00;37.30;;;;;;6141871;28;80728;-51
2024/01/31 06:29:48;;;;;;;10.20;7.03;;;23.90;37.00;;;;;;6156490;28;81245;-50
2024/01/31 06:32:49;;;;;;;11.77;7.93;;;23.90;36.90;;;;;;6150739;28;81597;-50
2024/01/31 06:35:50;;;;;;;13.52;7.20;;;23.90;37.00;;;;;;6148723;28;80665;-51
2024/01/31 06:38:51;;;;;;;14.88;8.15;;;23.90;37.10;;;;;;6151801;28;80774;-53
2024/01/31 06:41:51;;;;;;;13.35;8.00;;;23.90;37.20;;;;;;6135993;28;81324;-54
2024/01/31 06:44:52;;;;;;;11.98;7.68;;;23.80;36.80;;;;;;6129277;28;82743;-55
2024/01/31 06:47:52;;;;;;;11.55;7.25;;;23.90;36.70;;;;;;6130269;28;80983;-54
2024/01/31 06:50:53;;;;;;;12.35;7.32;;;23.80;37.00;;;;;;6142738;28;82385;-52
2024/01/31 06:53:54;;;;;;;12.38;7.40;;;23.80;36.50;;;;;;6141856;28;80744;-52
2024/01/31 06:56:54;;;;;;;16.40;7.68;;;23.80;36.30;;;;;;6147230;28;84991;-51
2024/01/31 06:59:55;;;;;;;12.55;7.68;;;23.80;36.80;;;;;;6152955;28;80916;-52
2024/01/31 07:02:56;;;;;;;12.50;7.45;;;23.80;36.10;;;;;;6154572;28;80572;-52
2024/01/31 07:05:56;;;;;;;11.52;7.88;;;23.80;36.20;;;;;;6154002;28;81074;-54
2024/01/31 07:08:57;;;;;;;12.07;7.88;;;23.80;36.00;;;;;;6142491;28;80562;-55
2024/01/31 07:11:57;;;;;;;13.75;8.38;;;23.70;35.90;;;;;;6153304;28;80525;-67
2024/01/31 07:14:58;;;;;;;12.35;7.65;;;23.70;35.90;;;;;;6146052;28;80068;-67
2024/01/31 07:17:58;;;;;;;11.68;7.53;;;23.70;36.00;;;;;;6152188;28;80788;-68
2024/01/31 07:20:59;;;;;;;11.82;8.15;;;23.70;35.70;;;;;;6153139;28;80506;-68
2024/01/31 07:23:59;;;;;;;15.05;8.43;;;23.70;36.00;;;;;;6153520;28;80926;-69
2024/01/31 07:27:00;;;;;;;10.70;7.53;;;23.70;35.90;;;;;;6153124;28;81941;-74
2024/01/31 07:30:00;;;;;;;12.60;7.30;;;23.70;35.90;;;;;;6146537;28;81520;-70
2024/01/31 07:33:01;;;;;;;13.43;8.07;;;23.70;35.90;;;;;;6153434;28;80564;-71
2024/01/31 07:36:02;;;;;;;13.63;8.15;;;23.70;36.20;;;;;;6141676;28;82523;-70
2024/01/31 07:39:04;;;;;;;12.80;7.80;;;23.70;36.00;;;;;;6149111;28;82818;-71
2024/01/31 07:42:05;;;;;;;10.07;7.05;;;23.70;36.00;;;;;;6154270;28;80911;-72
2024/01/31 07:45:06;;;;;;;11.32;7.68;;;23.70;36.00;;;;;;6150279;28;80319;-73
2024/01/31 07:48:06;;;;;;;13.98;8.35;;;23.70;36.00;;;;;;6145194;28;84227;-53
2024/01/31 07:51:07;;;;;;;13.82;7.88;;;23.70;36.00;;;;;;6153524;28;81413;-53
2024/01/31 07:54:07;;;;;;;12.32;7.80;;;23.70;36.00;;;;;;6151971;28;80612;-48
2024/01/31 07:57:08;;;;;;;11.85;7.90;;;23.70;35.90;;;;;;6147566;28;81209;-50
2024/01/31 08:00:09;;;;;;;13.43;7.88;;;23.60;35.80;;;;;;6148603;28;80603;-50
2024/01/31 08:03:09;;;;;;;14.30;8.32;;;23.70;35.90;;;;;;6153220;28;80407;-50
2024/01/31 08:06:10;;;;;;;12.32;8.38;;;23.70;36.20;;;;;;6152976;28;80954;-48
2024/01/31 08:09:11;;;;;;;11.65;7.35;;;23.70;36.70;;;;;;6151575;28;80751;-49
2024/01/31 08:12:12;;;;;;;11.70;7.47;;;23.70;36.90;;;;;;6147817;28;81255;-46
2024/01/31 08:15:12;;;;;;;11.50;7.10;;;23.70;37.10;;;;;;6151913;28;80226;-55
2024/01/31 08:18:13;;;;;;;12.07;7.28;;;23.70;37.50;;;;;;6151798;28;80764;-52
2024/01/31 08:21:13;;;;;;;11.57;7.38;;;23.70;37.70;;;;;;6151224;28;80458;-48
2024/01/31 08:24:14;;;;;;;14.20;7.38;;;23.70;37.80;;;;;;6152326;28;80556;-48
2024/01/31 08:27:15;;;;;;;14.20;7.80;;;23.70;37.80;;;;;;6152191;28;82905;-52
2024/01/31 08:30:15;;;;;;;10.02;6.70;;;23.70;38.00;;;;;;6152398;28;80358;-53
2024/01/31 08:33:16;;;;;;;11.40;7.85;;;23.70;37.90;;;;;;6153425;28;80491;-46
2024/01/31 08:36:16;;;;;;;11.90;7.50;;;23.70;37.80;;;;;;6146145;28;80747;-49
2024/01/31 08:39:17;;;;;;;12.25;7.70;;;23.70;37.50;;;;;;6152120;28;81336;-52
2024/01/31 08:42:17;;;;;;;10.88;7.13;;;23.60;37.50;;;;;;6152850;28;81636;-49
2024/01/31 08:45:18;;;;;;;16.90;8.57;;;23.70;37.50;;;;;;6153144;28;80389;-53
2024/01/31 08:48:18;;;;;;;13.15;8.35;;;23.70;37.90;;;;;;6148123;28;80845;-52
2024/01/31 08:51:19;;;;;;;12.60;7.25;;;23.70;38.00;;;;;;6153131;28;80775;-51
2024/01/31 08:54:20;;;;;;;10.80;7.57;;;23.70;38.00;;;;;;6148127;28;80552;-49
2024/01/31 08:57:21;;;;;;;12.82;7.57;;;23.70;38.00;;;;;;6152791;28;81381;-49
2024/01/31 09:00:21;;;;;;;13.35;8.32;;;23.70;37.90;;;;;;6139340;28;80370;-50
2024/01/31 09:03:22;;;;;;;12.65;8.25;;;23.70;38.00;;;;;;6153839;28;81276;-52
2024/01/31 09:06:22;;;;;;;13.80;7.75;;;23.70;38.00;;;;;;6152254;28;80981;-47
2024/01/31 09:09:23;;;;;;;11.13;7.05;;;23.70;38.00;;;;;;6152576;28;80047;-49
2024/01/31 09:12:24;;;;;;;12.95;8.43;;;23.70;38.10;;;;;;6152755;28;80738;-50
2024/01/31 09:15:24;;;;;;;12.80;8.55;;;23.70;38.00;;;;;;6152593;28;81045;-48
2024/01/31 09:18:25;;;;;;;15.77;8.25;;;23.70;37.90;;;;;;6151142;28;80910;-69
2024/01/31 09:21:26;;;;;;;13.55;8.95;;;23.70;37.90;;;;;;6144432;28;80739;-69
2024/01/31 09:24:27;;;;;;;12.02;8.38;;;23.70;37.70;;;;;;6144606;28;81435;-69
2024/01/31 09:27:27;;;;;;;14.35;8.75;;;23.70;37.00;;;;;;6147420;28;81224;-70
2024/01/31 09:30:28;;;;;;;14.23;8.48;;;23.80;36.80;;;;;;6148047;28;80825;-72
2024/01/31 09:33:29;;;;;;;12.73;8.27;;;23.90;36.50;;;;;;6150645;28;81184;-70
2024/01/31 09:36:30;;;;;;;14.50;8.70;;;23.90;37.00;;;;;;6148935;28;80723;-68
2024/01/31 09:39:30;;;;;;;15.00;8.98;;;23.90;36.30;;;;;;6152329;28;81398;-70
2024/01/31 09:42:31;;;;;;;15.63;8.35;;;24.00;36.50;;;;;;6147168;28;81187;-69
2024/01/31 09:45:31;;;;;;;12.63;8.35;;;24.00;36.40;;;;;;6143418;28;84764;-69
2024/01/31 09:48:32;;;;;;;12.27;8.27;;;24.00;36.40;;;;;;6148373;28;81961;-69
2024/01/31 09:51:32;;;;;;;12.15;8.25;;;24.00;36.50;;;;;;6151672;28;81335;-70
2024/01/31 09:54:33;;;;;;;17.17;9.77;;;24.00;36.50;;;;;;6151009;28;82415;-49
2024/01/31 09:57:33;;;;;;;15.30;8.38;;;24.00;36.60;;;;;;6151053;28;80824;-51
2024/01/31 10:00:34;;;;;;;14.18;9.43;;;24.00;36.70;;;;;;6150747;28;80535;-51
2024/01/31 10:03:34;;;;;;;14.18;8.40;;;24.10;36.80;;;;;;6151305;28;80712;-46
2024/01/31 10:06:35;;;;;;;11.60;8.25;;;24.10;36.80;;;;;;6151089;28;80472;-48
2024/01/31 10:09:35;;;;;;;13.18;8.32;;;24.10;36.70;;;;;;6150841;28;83117;-48
2024/01/31 10:12:36;;;;;;;13.98;8.32;;;24.10;36.90;;;;;;6152064;28;80539;-51
2024/01/31 10:15:37;;;;;;;13.55;8.63;;;24.10;36.80;;;;;;6152435;28;81063;-49
2024/01/31 10:18:37;;;;;;;12.07;8.52;;;24.10;36.70;;;;;;6149781;28;80449;-50
2024/01/31 10:21:38;;;;;;;13.15;8.90;;;24.00;36.90;;;;;;6151561;28;80539;-49
2024/01/31 10:24:38;;;;;;;16.20;8.93;;;24.10;36.70;;;;;;6151421;28;80768;-49
2024/01/31 10:27:39;;;;;;;15.63;10.02;;;24.00;36.70;;;;;;6146211;28;81771;-48
2024/01/31 10:30:40;;;;;;;14.20;9.32;;;24.00;36.70;;;;;;6147534;28;83236;-47
2024/01/31 10:33:40;;;;;;;14.48;9.40;;;24.10;36.70;;;;;;6150640;28;83356;-49
2024/01/31 10:36:41;;;;;;;16.80;9.48;;;24.00;36.60;;;;;;6151564;28;80048;-50
2024/01/31 10:39:41;;;;;;;16.27;10.30;;;24.00;36.60;;;;;;6150079;28;80522;-49
2024/01/31 10:42:42;;;;;;;14.52;8.95;;;24.00;36.60;;;;;;6135784;28;83324;-48
2024/01/31 10:45:42;;;;;;;14.63;9.50;;;24.00;36.60;;;;;;6150421;28;83550;-48
2024/01/31 10:48:43;;;;;;;15.07;9.68;;;24.00;36.60;;;;;;6145955;28;82237;-53
2024/01/31 10:51:43;;;;;;;15.32;9.73;;;23.90;36.60;;;;;;6151290;28;80600;-48
2024/01/31 10:54:44;;;;;;;18.17;9.85;;;23.90;36.60;;;;;;6150201;28;80343;-49
2024/01/31 10:57:44;;;;;;;16.25;10.48;;;23.80;36.70;;;;;;6149857;28;80651;-52
2024/01/31 11:00:45;;;;;;;16.05;9.50;;;23.80;36.60;;;;;;6149927;28;82733;-48
2024/01/31 11:03:45;;;;;;;17.60;10.20;;;23.80;36.60;;;;;;6154592;28;83050;-52
2024/01/31 11:06:46;;;;;;;15.60;9.85;;;23.80;36.70;;;;;;6151458;28;83212;-51
2024/01/31 11:09:46;;;;;;;18.95;10.77;;;23.80;36.60;;;;;;6154857;28;82984;-69
2024/01/31 11:12:47;;;;;;;16.50;10.02;;;23.80;36.60;;;;;;6147898;28;83394;-70
2024/01/31 11:15:47;;;;;;;18.45;10.90;;;23.80;36.60;;;;;;6128690;28;87575;-70
2024/01/31 11:18:48;;;;;;;18.77;10.48;;;23.80;36.50;;;;;;6151754;28;83208;-70
2024/01/31 11:21:48;;;;;;;18.05;10.50;;;23.80;36.50;;;;;;6144505;28;83339;-73
2024/01/31 11:24:49;;;;;;;16.63;10.63;;;23.80;36.50;;;;;;6143279;28;86145;-72
2024/01/31 11:27:49;;;;;;;17.60;10.50;;;23.80;36.40;;;;;;6151571;28;84666;-67
2024/01/31 11:30:51;;;;;;;18.88;10.90;;;23.70;36.30;;;;;;6149382;28;83628;-68
2024/01/31 11:33:55;;;;;;;16.40;10.35;;;23.70;36.20;;;;;;6135889;28;83519;-68
2024/01/31 11:36:55;;;;;;;18.15;10.65;;;23.70;36.20;;;;;;6142303;28;84048;-66
2024/01/31 11:39:56;;;;;;;16.25;10.65;;;23.70;36.80;;;;;;6144579;28;83193;-67
2024/01/31 11:42:56;;;;;;;18.55;10.90;;;23.70;36.00;;;;;;6142817;28;82942;-69
2024/01/31 11:45:57;;;;;;;19.00;11.50;;;23.80;36.20;;;;;;6137213;28;87242;-69
2024/01/31 11:48:57;;;;;;;17.67;10.40;;;23.80;36.80;;;;;;6145200;28;84233;-67
2024/01/31 11:51:58;;;;;;;17.80;11.43;;;23.80;36.60;;;;;;6139409;28;82938;-66
2024/01/31 11:54:59;;;;;;;19.27;10.48;;;23.80;37.30;;;;;;6147640;28;83200;-72
2024/01/31 11:57:59;;;;;;;17.20;10.80;;;23.80;37.30;;;;;;6150077;28;84076;-71
2024/01/31 12:00:59;;;;;;;15.45;10.52;;;23.80;37.50;;;;;;6150627;28;83027;-71
2024/01/31 12:04:00;;;;;;;20.00;10.65;;;23.80;37.50;;;;;;6152450;28;83741;-50
2024/01/31 12:07:01;;;;;;;17.55;10.63;;;23.80;37.50;;;;;;6140841;28;83957;-52
2024/01/31 12:10:03;;;;;;;18.17;10.43;;;23.80;37.40;;;;;;6151512;28;83020;-53
2024/01/31 12:13:05;;;;;;;17.55;10.52;;;23.80;37.50;;;;;;6149179;28;87477;-51
2024/01/31 12:16:05;;;;;;;20.67;11.02;;;23.80;37.60;;;;;;6148816;28;83284;-52
2024/01/31 12:19:07;;;;;;;19.77;10.60;;;23.80;37.40;;;;;;6144248;28;83817;-52
2024/01/31 12:22:09;;;;;;;18.92;10.60;;;23.80;37.60;;;;;;6147933;28;87432;-51
2024/01/31 12:25:09;;;;;;;17.02;11.30;;;23.80;37.60;;;;;;6175388;28;83196;-48
2024/01/31 12:28:09;;;;;;;18.80;10.65;;;23.90;37.60;;;;;;6151550;28;83685;-50
2024/01/31 12:31:10;;;;;;;16.73;10.63;;;23.80;38.80;;;;;;6146067;28;83198;-51
2024/01/31 12:34:11;;;;;;;17.45;10.75;;;23.80;38.00;;;;;;6129656;28;84512;-48
2024/01/31 12:37:11;;;;;;;17.30;9.88;;;23.90;37.60;;;;;;6150447;28;83105;-50
2024/01/31 12:40:12;;;;;;;18.98;11.05;;;23.90;38.10;;;;;;6150556;28;83123;-51
2024/01/31 12:43:12;;;;;;;17.85;10.05;;;23.80;37.80;;;;;;6149095;28;83005;-51
2024/01/31 12:46:13;;;;;;;20.27;11.55;;;23.80;38.20;;;;;;6152036;28;84394;-52
2024/01/31 12:49:13;;;;;;;21.00;12.50;;;23.80;37.40;;;;;;6144258;28;82896;-51
2024/01/31 12:52:14;;;;;;;18.98;11.45;;;23.90;37.60;;;;;;6149573;28;83706;-50
2024/01/31 12:55:15;;;;;;;20.30;11.45;;;23.90;37.40;;;;;;6151443;28;82986;-53
2024/01/31 12:58:15;;;;;;;19.88;11.77;;;23.90;37.50;;;;;;6151024;28;84592;-67
2024/01/31 13:01:17;;;;;;;19.50;12.57;;;23.90;37.30;;;;;;6149795;28;83119;-69
2024/01/31 13:04:17;;;;;;;17.80;11.63;;;23.90;37.30;;;;;;6145609;28;83654;-67
2024/01/31 13:07:18;;;;;;;22.60;11.70;;;23.90;37.40;;;;;;6151395;28;85229;-68
2024/01/31 13:10:18;;;;;;;19.38;11.77;;;23.90;37.30;;;;;;6150021;28;83574;-66
2024/01/31 13:13:19;;;;;;;16.60;11.45;;;23.90;37.90;;;;;;6150854;28;83223;-70
2024/01/31 13:16:20;;;;;;;23.00;12.88;;;23.90;37.20;;;;;;6142839;28;84068;-70
2024/01/31 13:19:21;;;;;;;19.88;12.98;;;23.90;37.20;;;;;;6144397;28;84286;-68
2024/01/31 13:22:22;;;;;;;16.15;10.68;;;23.90;37.50;;;;;;6145167;28;86475;-70
2024/01/31 13:25:22;;;;;;;21.50;10.82;;;23.90;38.00;;;;;;6138360;28;84011;-68
2024/01/31 13:28:23;;;;;;;17.02;10.35;;;23.80;37.70;;;;;;6147685;28;83870;-64
2024/01/31 13:31:23;;;;;;;18.85;11.52;;;23.80;37.70;;;;;;6143482;28;84432;-75
2024/01/31 13:34:24;;;;;;;18.88;11.60;;;23.80;37.70;;;;;;6148442;28;82917;-71
2024/01/31 13:37:24;;;;;;;18.05;11.20;;;23.90;37.80;;;;;;6146282;28;83395;-67
2024/01/31 13:40:25;;;;;;;17.20;11.15;;;23.90;38.00;;;;;;6145527;28;83192;-68
2024/01/31 13:43:25;;;;;;;18.33;10.63;;;23.90;38.20;;;;;;6147052;28;86596;-67
2024/01/31 13:46:26;;;;;;;18.08;10.68;;;23.80;38.10;;;;;;6147447;28;83723;-70
2024/01/31 13:49:27;;;;;;;18.60;11.50;;;23.90;38.10;;;;;;6145609;28;83853;-69
2024/01/31 13:52:27;;;;;;;18.08;10.85;;;23.90;37.80;;;;;;6145273;28;83157;-69
2024/01/31 13:55:28;;;;;;;17.35;11.27;;;23.80;37.80;;;;;;6145755;28;83374;-67
2024/01/31 13:58:29;;;;;;;16.60;11.23;;;23.80;38.00;;;;;;6146615;28;83782;-68
2024/01/31 14:01:29;;;;;;;18.08;11.45;;;23.80;37.50;;;;;;6146367;28;83071;-68
2024/01/31 14:04:30;;;;;;;18.92;11.13;;;23.80;37.60;;;;;;6146528;28;83204;-68
2024/01/31 14:07:30;;;;;;;18.00;11.05;;;23.80;37.60;;;;;;6149000;28;83490;-69
2024/01/31 14:10:31;;;;;;;19.15;11.02;;;23.80;37.50;;;;;;6142121;28;82967;-71
2024/01/31 14:13:31;;;;;;;19.83;11.55;;;23.80;37.70;;;;;;6138295;28;85263;-65
2024/01/31 14:16:32;;;;;;;18.85;11.60;;;23.70;37.60;;;;;;6129125;28;84429;-67
2024/01/31 14:19:35;;;;;;;22.77;12.32;;;23.80;38.10;;;;;;6138040;28;83018;-73
2024/01/31 14:22:38;;;;;;;23.20;11.50;;;23.80;37.90;;;;;;6147200;28;83892;-70
2024/01/31 14:25:38;;;;;;;25.05;11.60;;;23.80;38.20;;;;;;6144576;28;83076;-80
2024/01/31 14:28:39;;;;;;;23.50;11.05;;;23.80;38.30;;;;;;6146704;28;83905;-67
2024/01/31 14:31:41;;;;;;;30.20;11.85;;;23.80;38.20;;;;;;6139636;28;83475;-70
2024/01/31 14:34:42;;;;;;;18.75;11.95;;;23.80;38.40;;;;;;6140801;28;83265;-70
2024/01/31 14:37:42;;;;;;;25.55;12.35;;;23.80;38.10;;;;;;6150406;28;86514;-65
2024/01/31 14:40:43;;;;;;;22.33;11.32;;;23.80;38.40;;;;;;6151185;28;84198;-67
2024/01/31 14:43:43;;;;;;;19.92;11.75;;;23.80;38.30;;;;;;6150887;28;83373;-71
2024/01/31 14:46:44;;;;;;;26.45;11.88;;;23.80;38.40;;;;;;6149656;28;83042;-72
2024/01/31 14:49:44;;;;;;;21.88;12.45;;;23.80;38.70;;;;;;6149606;28;82922;-68
2024/01/31 14:52:45;;;;;;;20.90;12.07;;;23.80;38.70;;;;;;6150161;28;84505;-69
2024/01/31 14:55:45;;;;;;;20.13;12.63;;;23.80;38.70;;;;;;6136663;28;84574;-69
2024/01/31 14:58:46;;;;;;;19.15;12.40;;;23.80;38.70;;;;;;6151392;28;83519;-70
2024/01/31 15:01:46;;;;;;;23.60;12.25;;;23.80;38.70;;;;;;6140333;28;89187;-68
2024/01/31 15:04:47;;;;;;;23.33;12.80;;;23.80;38.70;;;;;;6149677;28;84134;-69
2024/01/31 15:07:47;;;;;;;19.63;12.32;;;23.80;38.80;;;;;;6161087;28;83388;-67
2024/01/31 15:10:48;;;;;;;22.88;12.85;;;23.80;38.70;;;;;;6157562;28;83523;-67
2024/01/31 15:13:48;;;;;;;25.25;12.35;;;23.80;39.00;;;;;;6147913;28;86422;-65
2024/01/31 15:16:49;;;;;;;23.67;12.20;;;23.80;38.90;;;;;;6147571;28;85450;-67
2024/01/31 15:19:49;;;;;;;20.63;12.02;;;23.80;39.00;;;;;;6147018;28;84884;-67
2024/01/31 15:22:50;;;;;;;19.58;13.20;;;23.80;39.60;;;;;;6138566;28;83345;-69